Etusivu
METAR-TAF:

METAR-TAF

Lentoasemat :

Prato Nevoso, Italia

Monte Malanotte

Leveyspiiri: 44-15N, Pituuspiiri: 007-48E, korkeus merenpinnasta: 1741 m

Tämänhetkinen sää

Tämä raportti tehtiin 1 tunti ja 13 minuuttia sitten, kello 17.55 UTC
Tuuli 9 kn idästä
Lämpötila 19°C
Kosteus 73%
Ilmanpaine 1011 hPa
Näkyvyys 10 km tai enemmän
ei pilviä alle 1500 m:ssä eikä cumulonimbus-pilviä

METAR: LIMY 261755Z 10009KT CAVOK 19/14 Q1011 RMK SKC VAL NIL VIS MIN 9999

Aika: 21:08 (19:08 UTC)


TAF: puuttuu

Säähavainnot ja -ennusteet yli 4000 lentoasemalta (METAR- ja TAF-raportit).

Käytössä olevat sääasemat on merkitty karttaan keltaisilla ja punaisilla pisteillä.

Aseta hiiri pisteen päälle nähdäksesi sääaseman nimen.

Klikkaa sitten nähdäksesi säähavainnot ja -ennusteet.

Kartan vaihtaminen: klikkaa mustalla rastilla varustettuja vihreitä pisteitä, niin voit zoomata sisään; viivalla varustettua vihreää pistettä, niin voit zoomata ulos tai vihreitä nuolia, niin pääset viereisille kartoille.


METAR-TAF: